Time;durP1;ratioP1;P1;durP2;ratioP2;P2;SDS_P1;SDS_P2;PMS_P1;PMS_P2;Temp;Humidity;BMP_temperature;BMP_pressure;BME280_temperature;BME280_humidity;BME280_pressure;Samples;Min_cycle;Max_cycle;Signal;HPM_P1;HPM_P2
2023/09/29 00:01:18;;;;;;;17.10;5.50;;;;;;;17.04;100.00;101553.22;5252352;28;20051;-71
2023/09/29 00:03:48;;;;;;;14.13;5.22;;;;;;;17.05;100.00;101549.47;5256028;28;20028;-71
2023/09/29 00:06:19;;;;;;;15.95;5.25;;;;;;;17.09;100.00;101556.19;5247372;28;20027;-71
2023/09/29 00:08:49;;;;;;;11.60;5.57;;;;;;;17.09;100.00;101548.88;5253351;28;20024;-72
2023/09/29 00:11:20;;;;;;;11.57;4.35;;;;;;;17.15;100.00;101544.56;5258398;28;20016;-71
2023/09/29 00:13:50;;;;;;;11.35;5.00;;;;;;;17.18;100.00;101536.06;5253344;28;20074;-71
2023/09/29 00:16:21;;;;;;;10.93;4.50;;;;;;;17.24;100.00;101535.28;5249767;28;20020;-72
2023/09/29 00:18:52;;;;;;;16.90;4.53;;;;;;;17.26;100.00;101524.22;5251298;28;20044;-72
2023/09/29 00:21:22;;;;;;;15.80;5.07;;;;;;;17.32;100.00;101523.47;5256083;28;20078;-71
2023/09/29 00:23:53;;;;;;;16.33;4.35;;;;;;;17.32;100.00;101527.03;5256231;28;20431;-72
2023/09/29 00:26:24;;;;;;;15.15;4.78;;;;;;;17.35;100.00;101528.50;5250731;28;20074;-72
2023/09/29 00:28:54;;;;;;;11.73;4.20;;;;;;;17.35;100.00;101531.22;5252349;28;20036;-72
2023/09/29 00:31:25;;;;;;;13.45;3.95;;;;;;;17.34;100.00;101526.81;5253774;28;20016;-72
2023/09/29 00:33:56;;;;;;;12.13;4.32;;;;;;;17.35;100.00;101514.94;5256010;28;20028;-72
2023/09/29 00:36:26;;;;;;;11.32;4.30;;;;;;;17.37;100.00;101507.47;5251417;28;20024;-72
2023/09/29 00:38:57;;;;;;;18.40;5.32;;;;;;;17.42;100.00;101517.69;5255724;28;20491;-72
2023/09/29 00:41:27;;;;;;;9.75;4.07;;;;;;;17.39;100.00;101513.50;5250802;28;20032;-71
2023/09/29 00:43:57;;;;;;;9.65;4.18;;;;;;;17.41;100.00;101510.59;5257110;28;20020;-72
2023/09/29 00:46:29;;;;;;;14.73;4.10;;;;;;;17.39;100.00;101513.50;5253335;28;20468;-72
2023/09/29 00:49:01;;;;;;;11.82;4.45;;;;;;;17.38;100.00;101521.84;5251847;28;20035;-71
2023/09/29 00:51:34;;;;;;;14.52;3.63;;;;;;;17.37;100.00;101517.44;5250719;28;20036;-71
2023/09/29 00:54:08;;;;;;;12.57;3.75;;;;;;;17.36;100.00;101511.19;5249000;28;20397;-72
2023/09/29 00:56:39;;;;;;;12.38;3.33;;;;;;;17.40;100.00;101508.94;5250602;28;20189;-71
2023/09/29 00:59:10;;;;;;;12.15;4.50;;;;;;;17.45;100.00;101504.59;5254059;28;20028;-71
2023/09/29 01:01:41;;;;;;;10.85;3.45;;;;;;;17.50;100.00;101504.00;5251533;28;20441;-71
2023/09/29 01:04:12;;;;;;;11.48;3.38;;;;;;;17.54;100.00;101508.00;5252713;28;20037;-71
2023/09/29 01:06:42;;;;;;;9.40;3.53;;;;;;;17.52;100.00;101507.34;5252225;28;20024;-71
2023/09/29 01:09:13;;;;;;;11.13;3.63;;;;;;;17.56;100.00;101500.50;5250091;28;20031;-72
2023/09/29 01:11:44;;;;;;;12.18;3.78;;;;;;;17.64;100.00;101494.94;5259271;28;20021;-71
2023/09/29 01:14:14;;;;;;;13.07;3.45;;;;;;;17.69;100.00;101487.06;5252244;28;20020;-72
2023/09/29 01:16:45;;;;;;;12.23;3.42;;;;;;;17.72;100.00;101483.94;5245442;28;20111;-72
2023/09/29 01:19:17;;;;;;;12.50;3.53;;;;;;;17.68;100.00;101476.41;5247379;28;20020;-72
2023/09/29 01:21:48;;;;;;;15.60;3.35;;;;;;;17.71;100.00;101465.97;5254452;28;20095;-72
2023/09/29 01:24:21;;;;;;;12.93;3.00;;;;;;;17.76;100.00;101473.56;5247013;28;20057;-71
2023/09/29 01:26:51;;;;;;;11.65;2.90;;;;;;;17.83;100.00;101469.84;5246095;28;20032;-72
2023/09/29 01:29:23;;;;;;;7.57;2.50;;;;;;;17.82;100.00;101456.47;5254617;28;20051;-72
2023/09/29 01:31:53;;;;;;;11.35;3.10;;;;;;;17.82;100.00;101460.03;5251673;28;20129;-72
2023/09/29 01:34:24;;;;;;;13.02;2.85;;;;;;;17.86;100.00;101457.75;5254436;28;20412;-72
2023/09/29 01:36:57;;;;;;;10.32;3.30;;;;;;;17.87;100.00;101451.28;5253369;28;20043;-72
2023/09/29 01:39:27;;;;;;;12.02;3.25;;;;;;;17.95;100.00;101458.44;5250470;28;20036;-72
2023/09/29 01:41:58;;;;;;;12.98;3.47;;;;;;;17.93;100.00;101441.53;5252246;28;20032;-72
2023/09/29 01:44:28;;;;;;;7.93;2.53;;;;;;;17.93;100.00;101449.66;5244282;28;20071;-72
2023/09/29 01:46:59;;;;;;;12.55;3.28;;;;;;;17.96;100.00;101449.25;5252331;28;20042;-73
2023/09/29 01:49:30;;;;;;;6.40;3.10;;;;;;;17.96;100.00;101451.97;5244917;28;20024;-72
2023/09/29 01:52:00;;;;;;;9.88;2.70;;;;;;;18.01;100.00;101444.88;5253992;28;20035;-72
2023/09/29 01:54:31;;;;;;;10.95;3.03;;;;;;;18.02;100.00;101446.59;5250360;28;20166;-72
2023/09/29 01:57:02;;;;;;;10.45;3.28;;;;;;;18.03;100.00;101444.72;5251173;28;20448;-72
2023/09/29 01:59:32;;;;;;;9.77;3.33;;;;;;;18.07;100.00;101443.25;5255385;28;20024;-72
2023/09/29 02:02:03;;;;;;;14.60;3.17;;;;;;;18.08;100.00;101443.06;5251503;28;20073;-72
2023/09/29 02:04:34;;;;;;;6.20;2.95;;;;;;;18.08;100.00;101439.53;5255155;28;20465;-72
2023/09/29 02:07:05;;;;;;;9.73;2.83;;;;;;;18.10;100.00;101437.44;5246679;28;20543;-69
2023/09/29 02:09:36;;;;;;;9.07;3.10;;;;;;;18.09;100.00;101428.44;5258666;28;20024;-70
2023/09/29 02:12:06;;;;;;;9.60;2.53;;;;;;;18.17;100.00;101432.84;5257362;28;20111;-72
2023/09/29 02:14:37;;;;;;;12.57;3.03;;;;;;;18.24;100.00;101424.75;5257611;28;20149;-72
2023/09/29 02:17:09;;;;;;;8.95;3.00;;;;;;;18.31;100.00;101426.44;5258981;28;20063;-72
2023/09/29 02:19:46;;;;;;;11.65;3.08;;;;;;;18.41;100.00;101419.78;5249896;28;20389;-73
2023/09/29 02:22:20;;;;;;;7.53;3.25;;;;;;;18.44;100.00;101419.41;5256522;28;20551;-72
2023/09/29 02:24:51;;;;;;;11.70;3.15;;;;;;;18.45;100.00;101418.34;5256220;28;20032;-73
2023/09/29 02:27:22;;;;;;;6.63;2.40;;;;;;;18.45;100.00;101411.03;5254559;28;20024;-73
2023/09/29 02:29:52;;;;;;;12.30;2.53;;;;;;;18.44;100.00;101397.66;5258329;28;20534;-72
2023/09/29 02:32:23;;;;;;;8.10;2.22;;;;;;;18.38;100.00;101388.47;5255867;28;20073;-72
2023/09/29 02:34:55;;;;;;;13.75;3.28;;;;;;;18.37;100.00;101384.03;5256775;28;20029;-72
2023/09/29 02:37:25;;;;;;;7.57;2.53;;;;;;;18.32;100.00;101381.97;5258273;28;20025;-72
2023/09/29 02:39:56;;;;;;;4.80;2.28;;;;;;;18.28;100.00;101375.25;5256628;28;20032;-72
2023/09/29 02:42:26;;;;;;;9.45;2.75;;;;;;;18.27;100.00;101378.16;5252151;28;20027;-72
2023/09/29 02:44:57;;;;;;;6.38;2.28;;;;;;;18.22;100.00;101381.47;5255240;28;20020;-72
2023/09/29 02:47:28;;;;;;;10.75;2.63;;;;;;;18.24;100.00;101387.56;5259081;28;20069;-72
2023/09/29 02:49:59;;;;;;;11.70;2.67;;;;;;;18.30;100.00;101375.88;5251529;28;20029;-72
2023/09/29 02:52:29;;;;;;;8.43;2.55;;;;;;;18.33;100.00;101386.34;5254732;28;20043;-72
2023/09/29 02:55:00;;;;;;;4.82;2.22;;;;;;;18.35;100.00;101378.81;5252364;28;20032;-72
2023/09/29 02:57:31;;;;;;;6.95;2.50;;;;;;;18.35;100.00;101378.00;5257468;28;20111;-72
2023/09/29 03:00:09;;;;;;;10.07;2.63;;;;;;;18.36;100.00;101374.22;5256975;28;20035;-72
2023/09/29 03:02:40;;;;;;;8.25;3.10;;;;;;;18.38;100.00;101375.72;5253647;28;20438;-72
2023/09/29 03:05:11;;;;;;;11.10;3.13;;;;;;;18.41;100.00;101374.44;5256083;28;20132;-72
2023/09/29 03:07:42;;;;;;;9.77;2.90;;;;;;;18.47;100.00;101376.34;5255357;28;20023;-72
2023/09/29 03:10:15;;;;;;;8.23;2.25;;;;;;;18.53;100.00;101380.97;5253920;28;20486;-72
2023/09/29 03:12:46;;;;;;;8.60;2.40;;;;;;;18.53;100.00;101364.66;5256508;28;20032;-72
2023/09/29 03:15:17;;;;;;;11.70;2.75;;;;;;;18.51;100.00;101360.47;5251445;28;20032;-72
2023/09/29 03:17:48;;;;;;;6.75;2.80;;;;;;;18.50;100.00;101356.91;5257228;28;20059;-72
2023/09/29 03:20:18;;;;;;;10.13;2.65;;;;;;;18.55;100.00;101353.59;5252354;28;20016;-72
2023/09/29 03:22:49;;;;;;;9.90;2.60;;;;;;;18.58;100.00;101345.03;5254511;28;20544;-72
2023/09/29 03:25:20;;;;;;;6.90;2.30;;;;;;;18.62;100.00;101348.97;5254570;28;20025;-72
2023/09/29 03:27:51;;;;;;;11.23;2.33;;;;;;;18.65;100.00;101337.72;5254483;28;20099;-72
2023/09/29 03:30:21;;;;;;;9.48;2.83;;;;;;;18.66;100.00;101343.97;5253422;28;20020;-72
2023/09/29 03:32:52;;;;;;;9.15;2.97;;;;;;;18.65;100.00;101343.16;5254683;28;20542;-72
2023/09/29 03:35:23;;;;;;;7.32;2.78;;;;;;;18.64;100.00;101334.16;5254007;28;20093;-72
2023/09/29 03:37:54;;;;;;;8.48;2.80;;;;;;;18.73;100.00;101331.28;5257359;28;20054;-72
2023/09/29 03:40:26;;;;;;;7.20;2.40;;;;;;;18.81;100.00;101342.75;5252921;28;20453;-71
2023/09/29 03:42:57;;;;;;;6.13;2.63;;;;;;;18.87;100.00;101331.06;5255547;28;20024;-71
2023/09/29 03:45:27;;;;;;;6.72;2.55;;;;;;;18.92;100.00;101329.59;5255677;28;20024;-71
2023/09/29 03:47:59;;;;;;;7.10;2.70;;;;;;;18.98;100.00;101339.66;5253087;28;20016;-72
2023/09/29 03:50:29;;;;;;;7.63;2.78;;;;;;;18.96;100.00;101337.13;5256426;28;20066;-72
2023/09/29 03:53:00;;;;;;;5.72;2.30;;;;;;;18.98;100.00;101328.78;5248446;28;20056;-71
2023/09/29 03:55:30;;;;;;;4.72;2.38;;;;;;;19.05;100.00;101324.16;5257824;28;20020;-71
2023/09/29 03:58:01;;;;;;;6.40;2.58;;;;;;;19.14;100.00;101326.44;5255148;28;20163;-71
2023/09/29 04:00:31;;;;;;;9.52;2.42;;;;;;;19.17;100.00;101329.78;5255144;28;20020;-71
2023/09/29 04:03:02;;;;;;;4.95;2.50;;;;;;;19.19;100.00;101325.00;5254429;28;20124;-72
2023/09/29 04:05:33;;;;;;;5.22;2.72;;;;;;;19.23;100.00;101328.94;5253484;28;20100;-72
2023/09/29 04:08:03;;;;;;;7.97;2.85;;;;;;;19.24;100.00;101319.75;5254292;28;20039;-72
2023/09/29 04:10:34;;;;;;;4.88;2.30;;;;;;;19.30;100.00;101318.91;5249338;28;20039;-72
2023/09/29 04:13:04;;;;;;;6.40;2.30;;;;;;;19.34;100.00;101322.88;5251058;28;20069;-72
2023/09/29 04:15:35;;;;;;;9.20;2.92;;;;;;;19.34;100.00;101306.53;5252922;28;20032;-71
2023/09/29 04:18:06;;;;;;;8.43;2.22;;;;;;;19.36;100.00;101304.44;5254461;28;20036;-71
2023/09/29 04:20:36;;;;;;;5.85;2.60;;;;;;;19.32;100.00;101300.47;5251994;28;20028;-72
2023/09/29 04:23:07;;;;;;;6.60;2.38;;;;;;;19.32;100.00;101297.75;5253116;28;20032;-71
2023/09/29 04:25:38;;;;;;;12.18;2.60;;;;;;;19.41;100.00;101297.31;5257601;28;20377;-71
2023/09/29 04:28:08;;;;;;;7.47;2.58;;;;;;;19.45;100.00;101292.28;5251687;28;20496;-72
2023/09/29 04:30:38;;;;;;;6.07;2.95;;;;;;;19.45;100.00;101286.84;5257425;28;20382;-73
2023/09/29 04:33:09;;;;;;;8.82;3.13;;;;;;;19.54;100.00;101287.44;5249412;28;20024;-72
2023/09/29 04:35:39;;;;;;;6.95;2.70;;;;;;;19.52;100.00;101294.97;5249666;28;20032;-72
2023/09/29 04:38:10;;;;;;;8.15;2.72;;;;;;;19.53;100.00;101293.91;5248598;28;20020;-72
2023/09/29 04:40:41;;;;;;;6.47;2.40;;;;;;;19.54;100.00;101303.78;5254371;28;20048;-72
2023/09/29 04:43:12;;;;;;;4.95;2.30;;;;;;;19.60;100.00;101301.03;5244509;28;20024;-72
2023/09/29 04:45:43;;;;;;;6.13;2.85;;;;;;;19.67;100.00;101301.84;5247373;28;20023;-72
2023/09/29 04:48:13;;;;;;;6.78;2.08;;;;;;;19.68;100.00;101300.00;5248733;28;20051;-72
2023/09/29 04:50:44;;;;;;;4.35;2.50;;;;;;;19.69;100.00;101300.81;5252504;28;20103;-72
2023/09/29 04:53:15;;;;;;;6.72;2.50;;;;;;;19.69;100.00;101296.22;5246311;28;20412;-72
2023/09/29 04:55:45;;;;;;;10.98;2.70;;;;;;;19.72;100.00;101303.94;5255243;28;20024;-72
2023/09/29 04:58:16;;;;;;;5.07;2.88;;;;;;;19.76;100.00;101304.34;5243914;28;20038;-72
2023/09/29 05:00:46;;;;;;;5.63;2.70;;;;;;;19.74;100.00;101301.84;5249400;28;20021;-72
2023/09/29 05:03:17;;;;;;;3.88;2.35;;;;;;;19.76;100.00;101293.44;5252879;28;20101;-72
2023/09/29 05:05:47;;;;;;;4.75;2.72;;;;;;;19.79;100.00;101290.31;5251142;28;20371;-72
2023/09/29 05:08:18;;;;;;;6.97;2.30;;;;;;;19.74;100.00;101293.69;5253586;28;20020;-73
2023/09/29 05:10:48;;;;;;;7.15;3.05;;;;;;;19.77;100.00;101293.22;5254869;28;20027;-72
2023/09/29 05:13:19;;;;;;;8.80;3.00;;;;;;;19.77;100.00;101297.84;5253365;28;20397;-72
2023/09/29 05:15:49;;;;;;;4.47;2.55;;;;;;;19.77;100.00;101290.50;5252955;28;20032;-72
2023/09/29 05:18:23;;;;;;;5.22;2.70;;;;;;;19.79;100.00;101296.59;5251735;28;20389;-72
2023/09/29 05:20:53;;;;;;;6.45;2.88;;;;;;;19.72;100.00;101293.03;5252381;28;20473;-72
2023/09/29 05:23:24;;;;;;;4.63;2.63;;;;;;;19.74;100.00;101298.28;5249473;28;20016;-72
2023/09/29 05:25:54;;;;;;;11.20;2.90;;;;;;;19.69;100.00;101295.38;5252229;28;20080;-72
2023/09/29 05:28:25;;;;;;;7.25;2.55;;;;;;;19.65;100.00;101292.25;5250689;28;20023;-72
2023/09/29 05:30:56;;;;;;;5.78;2.58;;;;;;;19.65;100.00;101297.69;5254390;28;20016;-72
2023/09/29 05:33:27;;;;;;;6.45;2.60;;;;;;;19.62;100.00;101293.50;5250079;28;20023;-72
2023/09/29 05:35:58;;;;;;;9.07;3.00;;;;;;;19.54;100.00;101293.72;5252778;28;20057;-72
2023/09/29 05:38:29;;;;;;;5.82;2.83;;;;;;;19.56;100.00;101290.78;5253445;28;20107;-72
2023/09/29 05:40:59;;;;;;;6.60;2.92;;;;;;;19.56;100.00;101291.59;5251197;28;20160;-73
2023/09/29 05:43:30;;;;;;;7.30;2.83;;;;;;;19.60;100.00;101292.88;5250072;28;20028;-72
2023/09/29 05:46:01;;;;;;;4.35;2.70;;;;;;;19.59;100.00;101293.94;5248320;28;20029;-72
2023/09/29 05:48:34;;;;;;;5.57;2.85;;;;;;;19.53;100.00;101291.19;5237256;28;20033;-72
2023/09/29 05:51:05;;;;;;;9.57;3.05;;;;;;;19.57;100.00;101298.72;5248310;28;20024;-72
2023/09/29 05:53:35;;;;;;;4.80;2.65;;;;;;;19.58;100.00;101310.47;5245417;28;20024;-73
2023/09/29 05:56:08;;;;;;;6.13;2.75;;;;;;;19.55;100.00;101314.44;5240282;28;20032;-72
2023/09/29 05:58:39;;;;;;;7.03;2.67;;;;;;;19.59;100.00;101309.41;5244724;28;20028;-72
2023/09/29 06:01:11;;;;;;;5.90;2.83;;;;;;;19.59;100.00;101310.28;5242099;28;20017;-73
2023/09/29 06:03:42;;;;;;;5.25;2.78;;;;;;;19.64;100.00;101302.28;5250681;28;20385;-72
2023/09/29 06:06:12;;;;;;;5.47;3.05;;;;;;;19.76;100.00;101316.06;5244775;28;20021;-72
2023/09/29 06:08:44;;;;;;;7.60;3.50;;;;;;;19.82;100.00;101320.63;5252321;28;20024;-72
2023/09/29 06:11:15;;;;;;;4.70;2.92;;;;;;;19.87;100.00;101320.81;5244414;28;20048;-72
2023/09/29 06:13:46;;;;;;;7.68;3.22;;;;;;;19.91;100.00;101315.78;5241010;28;20111;-72
2023/09/29 06:16:17;;;;;;;6.53;3.17;;;;;;;19.96;100.00;101324.16;5241858;28;20037;-72
2023/09/29 06:18:47;;;;;;;7.15;2.58;;;;;;;20.00;100.00;101327.28;5252297;28;20023;-73
2023/09/29 06:21:18;;;;;;;5.60;2.80;;;;;;;19.97;100.00;101330.41;5244765;28;20462;-73
2023/09/29 06:23:48;;;;;;;7.05;2.85;;;;;;;20.00;100.00;101333.56;5248012;28;20400;-72
2023/09/29 06:26:19;;;;;;;5.68;2.45;;;;;;;20.08;100.00;101335.19;5236223;28;20037;-72
2023/09/29 06:28:49;;;;;;;5.93;2.65;;;;;;;20.08;100.00;101329.72;5241463;28;20016;-72
2023/09/29 06:31:21;;;;;;;4.70;2.28;;;;;;;20.16;100.00;101332.22;5239152;28;20519;-72
2023/09/29 06:33:51;;;;;;;7.03;2.50;;;;;;;20.26;100.00;101326.28;5246641;28;20511;-72
2023/09/29 06:36:22;;;;;;;5.47;2.80;;;;;;;20.33;100.00;101330.66;5238972;28;20024;-73
2023/09/29 06:38:53;;;;;;;10.18;3.25;;;;;;;20.43;100.00;101327.44;5244813;28;20081;-72
2023/09/29 06:41:23;;;;;;;5.93;2.47;;;;;;;20.50;100.00;101324.72;5240394;28;20535;-72
2023/09/29 06:43:54;;;;;;;6.32;2.50;;;;;;;20.51;100.00;101316.31;5240655;28;20417;-72
2023/09/29 06:46:25;;;;;;;5.75;2.50;;;;;;;20.50;100.00;101322.81;5249599;28;20103;-72
2023/09/29 06:48:56;;;;;;;8.73;2.72;;;;;;;20.46;100.00;101324.28;5243009;28;20334;-72
2023/09/29 06:51:26;;;;;;;7.60;2.65;;;;;;;20.46;100.00;101326.16;5244359;28;20025;-72
2023/09/29 06:53:56;;;;;;;6.22;3.00;;;;;;;20.52;100.00;101333.50;5244729;28;20032;-73
2023/09/29 06:56:27;;;;;;;5.90;2.83;;;;;;;20.46;100.00;101329.72;5249926;28;20032;-72
2023/09/29 06:58:57;;;;;;;9.25;3.63;;;;;;;20.50;100.00;101332.88;5246481;28;20059;-72
2023/09/29 07:01:28;;;;;;;5.50;3.10;;;;;;;20.49;100.00;101328.50;5243828;28;20452;-72
2023/09/29 07:03:58;;;;;;;10.30;2.95;;;;;;;20.47;100.00;101345.06;5244292;28;20028;-73
2023/09/29 07:06:29;;;;;;;5.35;2.47;;;;;;;20.43;100.00;101341.91;5245797;28;20034;-73
2023/09/29 07:09:00;;;;;;;5.55;2.83;;;;;;;20.46;100.00;101347.97;5247635;28;20126;-72
2023/09/29 07:11:31;;;;;;;6.55;2.72;;;;;;;20.55;100.00;101347.53;5246364;28;20544;-72
2023/09/29 07:14:01;;;;;;;6.82;2.60;;;;;;;20.72;100.00;101346.97;5245476;28;20031;-72
2023/09/29 07:16:32;;;;;;;5.78;2.17;;;;;;;20.93;100.00;101355.63;5246353;28;20024;-73
2023/09/29 07:19:03;;;;;;;6.95;2.38;;;;;;;21.27;100.00;101347.13;5248303;28;20039;-73
2023/09/29 07:21:34;;;;;;;6.05;2.70;;;;;;;21.57;100.00;101355.47;5242728;28;20029;-72
2023/09/29 07:24:07;;;;;;;4.03;2.33;;;;;;;21.76;100.00;101359.88;5245528;28;20047;-72
2023/09/29 07:26:38;;;;;;;6.65;2.72;;;;;;;22.01;100.00;101365.25;5241714;28;20035;-73
2023/09/29 07:29:08;;;;;;;6.32;2.80;;;;;;;22.15;100.00;101369.50;5246130;28;20123;-72
2023/09/29 07:31:46;;;;;;;5.90;1.98;;;;;;;22.21;100.00;101373.22;5252027;28;20040;-73
2023/09/29 07:34:18;;;;;;;7.80;3.00;;;;;;;22.20;100.00;101371.56;5242002;28;20505;-74
2023/09/29 07:36:49;;;;;;;4.70;2.15;;;;;;;22.07;100.00;101371.69;5241770;28;20024;-73
2023/09/29 07:39:20;;;;;;;9.13;2.83;;;;;;;22.07;100.00;101377.97;5244896;28;20401;-73
2023/09/29 07:41:50;;;;;;;6.97;2.55;;;;;;;22.16;100.00;101375.81;5249530;28;20575;-73
2023/09/29 07:44:21;;;;;;;7.30;2.83;;;;;;;22.19;100.00;101381.66;5244495;28;20031;-73
2023/09/29 07:46:53;;;;;;;9.35;2.85;;;;;;;22.30;100.00;101385.50;5241835;28;20024;-73
2023/09/29 07:49:24;;;;;;;6.28;2.10;;;;;;;22.36;100.00;101387.31;5248769;28;20035;-73
2023/09/29 07:51:55;;;;;;;7.55;2.97;;;;;;;22.21;100.00;101389.63;5241804;28;20108;-73
2023/09/29 07:54:26;;;;;;;8.40;2.55;;;;;;;22.30;100.00;101388.25;5244584;28;20402;-73
2023/09/29 07:56:56;;;;;;;5.75;2.83;;;;;;;22.59;100.00;101391.19;5248772;28;20028;-73
2023/09/29 07:59:26;;;;;;;7.20;2.83;;;;;;;22.68;100.00;101393.34;5240805;28;20105;-73
2023/09/29 08:01:58;;;;;;;6.45;2.25;;;;;;;23.16;100.00;101400.63;5240550;28;20458;-73
2023/09/29 08:04:28;;;;;;;7.82;2.45;;;;;;;23.18;100.00;101411.34;5240754;28;20040;-72
2023/09/29 08:06:59;;;;;;;8.30;3.22;;;;;;;23.34;100.00;101412.53;5241268;28;20424;-73
2023/09/29 08:09:29;;;;;;;9.38;2.85;;;;;;;23.26;100.00;101411.81;5240780;28;20036;-73
2023/09/29 08:12:00;;;;;;;10.27;2.92;;;;;;;23.33;100.00;101417.19;5245409;28;20073;-73
2023/09/29 08:14:31;;;;;;;9.27;2.85;;;;;;;23.27;100.00;101415.41;5246488;28;20020;-73
2023/09/29 08:17:02;;;;;;;10.93;3.05;;;;;;;22.89;100.00;101422.13;5247159;28;20036;-73
2023/09/29 08:19:34;;;;;;;8.75;2.38;;;;;;;22.75;100.00;101426.09;5245313;28;20420;-73
2023/09/29 08:22:04;;;;;;;14.25;3.40;;;;;;;22.33;100.00;101426.03;5243132;28;20099;-73
2023/09/29 08:24:36;;;;;;;10.73;2.65;;;;;;;22.61;100.00;101428.19;5251877;28;20084;-73
2023/09/29 08:27:06;;;;;;;14.00;3.08;;;;;;;22.71;100.00;101433.91;5241941;28;20033;-73
2023/09/29 08:29:36;;;;;;;15.57;3.53;;;;;;;22.73;100.00;101437.25;5247850;28;20055;-73
2023/09/29 08:32:07;;;;;;;10.07;2.70;;;;;;;22.67;100.00;101442.81;5248027;28;20090;-73
2023/09/29 08:34:39;;;;;;;10.07;3.45;;;;;;;22.62;100.00;101442.69;5248945;28;20044;-73
2023/09/29 08:37:11;;;;;;;10.98;3.25;;;;;;;22.47;100.00;101445.81;5246054;28;20103;-73
2023/09/29 08:39:41;;;;;;;7.35;3.13;;;;;;;22.45;100.00;101448.81;5245043;28;20021;-72
2023/09/29 08:42:34;;;;;;;11.35;3.15;;;;;;;22.35;100.00;101453.97;5246811;28;20032;-73
2023/09/29 08:45:10;;;;;;;13.13;3.40;;;;;;;22.23;100.00;101458.53;5240198;28;20078;-73
2023/09/29 08:47:40;;;;;;;12.25;3.90;;;;;;;22.07;100.00;101457.22;5244074;28;20687;-73
2023/09/29 08:50:11;;;;;;;13.32;3.13;;;;;;;21.91;100.00;101460.56;5246360;28;20052;-73
2023/09/29 08:52:44;;;;;;;8.20;3.13;;;;;;;21.94;100.00;101460.13;5244019;28;20378;-73
2023/09/29 08:55:16;;;;;;;13.93;3.35;;;;;;;21.87;100.00;101468.34;5244719;28;20028;-73
2023/09/29 08:57:47;;;;;;;9.98;3.13;;;;;;;21.84;100.00;101473.44;5242943;28;20050;-73
2023/09/29 09:00:21;;;;;;;8.90;3.38;;;;;;;21.79;100.00;101478.72;5250146;28;20083;-73
2023/09/29 09:02:51;;;;;;;10.07;3.22;;;;;;;21.82;100.00;101472.84;5247337;28;20016;-73
2023/09/29 09:05:23;;;;;;;8.93;3.25;;;;;;;21.77;100.00;101478.13;5242719;28;20021;-73
2023/09/29 09:07:55;;;;;;;15.45;4.13;;;;;;;21.65;100.00;101484.34;5244826;28;20016;-73
2023/09/29 09:10:34;;;;;;;7.55;3.03;;;;;;;21.65;100.00;101491.69;5246277;28;20086;-74
2023/09/29 09:13:05;;;;;;;11.05;2.80;;;;;;;21.68;100.00;101497.53;5244325;28;20039;-73
2023/09/29 09:15:36;;;;;;;7.28;2.63;;;;;;;21.56;100.00;101499.31;5246407;28;20052;-72
2023/09/29 09:18:06;;;;;;;9.00;2.97;;;;;;;21.69;100.00;101496.50;5242740;28;20032;-73
2023/09/29 09:20:37;;;;;;;6.57;2.78;;;;;;;21.86;100.00;101494.00;5246946;28;20024;-72
2023/09/29 09:23:07;;;;;;;13.23;3.22;;;;;;;21.91;100.00;101493.34;5245118;28;20370;-73
2023/09/29 09:25:42;;;;;;;6.65;2.47;;;;;;;22.04;100.00;101503.28;5243242;28;20039;-73
2023/09/29 09:28:19;;;;;;;10.20;3.05;;;;;;;22.26;100.00;101496.34;5241672;28;20028;-73
2023/09/29 09:31:01;;;;;;;9.98;3.00;;;;;;;22.38;100.00;101497.25;5240557;28;20350;-73
2023/09/29 09:33:34;;;;;;;7.25;3.17;;;;;;;22.64;100.00;101500.69;5242070;28;20076;-73
2023/09/29 09:36:09;;;;;;;10.77;2.75;;;;;;;22.57;100.00;101508.16;5243965;28;20408;-73
2023/09/29 09:38:40;;;;;;;;;;;;;;;22.59;100.00;101506.03;5240000;28;20063;-73
2023/09/29 09:41:15;;;;;;;13.32;3.00;;;;;;;22.58;100.00;101507.94;5243494;28;19955;-73
2023/09/29 09:43:45;;;;;;;8.38;2.97;;;;;;;22.63;100.00;101507.25;5241892;28;20028;-73
2023/09/29 09:46:18;;;;;;;11.95;3.45;;;;;;;22.59;100.00;101515.09;5244513;28;20082;-73
2023/09/29 09:49:07;;;;;;;8.65;3.33;;;;;;;22.53;100.00;101521.44;5244968;28;20028;-73
2023/09/29 09:51:42;;;;;;;12.27;3.25;;;;;;;22.54;100.00;101525.03;5239292;28;20132;-73
2023/09/29 09:54:18;;;;;;;;;;;;;;;22.20;100.00;101527.31;5242864;28;20028;-73
2023/09/29 09:57:00;;;;;;;6.20;2.50;;;;;;;22.24;100.00;101531.28;5242191;28;19919;-73
2023/09/29 09:59:31;;;;;;;9.38;3.65;;;;;;;22.21;100.00;101531.72;5241899;28;20036;-73
2023/09/29 10:02:06;;;;;;;11.13;3.30;;;;;;;22.22;100.00;101539.69;5241770;28;20024;-73
2023/09/29 10:04:38;;;;;;;8.73;3.00;;;;;;;22.35;100.00;101538.72;5241810;28;20377;-73
2023/09/29 10:07:09;;;;;;;10.63;3.20;;;;;;;22.41;100.00;101550.63;5245992;28;20036;-73
2023/09/29 10:09:43;;;;;;;8.02;2.83;;;;;;;22.21;100.00;101553.59;5241563;28;20044;-73
2023/09/29 10:12:23;;;;;;;8.13;2.67;;;;;;;22.16;100.00;101554.25;5241922;28;20108;-73
2023/09/29 10:14:56;;;;;;;7.35;2.42;;;;;;;22.12;100.00;101558.50;5244963;28;20041;-74
2023/09/29 10:17:39;;;;;;;3.40;1.73;;;;;;;22.27;100.00;101558.13;5241412;28;20039;-73
2023/09/29 10:20:21;;;;;;;7.38;2.25;;;;;;;22.18;100.00;101563.06;5245308;28;20120;-73
2023/09/29 10:23:06;;;;;;;5.70;2.17;;;;;;;22.37;100.00;101565.81;5242852;28;20441;-72
2023/09/29 10:25:38;;;;;;;8.88;2.92;;;;;;;22.22;100.00;101566.19;5242418;28;20036;-73
2023/09/29 10:28:12;;;;;;;5.80;2.10;;;;;;;22.16;100.00;101565.19;5245333;28;20024;-74
2023/09/29 10:30:42;;;;;;;5.35;2.08;;;;;;;22.24;100.00;101564.06;5244883;28;20040;-73
2023/09/29 10:33:13;;;;;;;6.68;2.45;;;;;;;22.29;100.00;101566.97;5247128;28;20330;-74
2023/09/29 10:35:46;;;;;;;5.78;2.30;;;;;;;22.27;100.00;101560.88;5243492;28;20036;-73
2023/09/29 10:38:23;;;;;;;9.15;2.42;;;;;;;22.29;100.00;101555.16;5240963;28;20051;-73
2023/09/29 10:40:53;;;;;;;8.10;2.90;;;;;;;22.18;100.00;101568.53;5241560;28;20036;-73
2023/09/29 10:43:24;;;;;;;6.80;2.55;;;;;;;22.11;100.00;101569.66;5243232;28;20363;-73
2023/09/29 10:45:56;;;;;;;7.45;2.92;;;;;;;22.11;100.00;101577.84;5247714;28;20040;-73
2023/09/29 10:48:27;;;;;;;11.57;2.60;;;;;;;22.26;100.00;101580.25;5243686;28;20105;-73
2023/09/29 10:50:58;;;;;;;8.68;2.83;;;;;;;22.13;100.00;101582.03;5242592;28;20128;-73
2023/09/29 10:53:36;;;;;;;13.23;2.75;;;;;;;22.08;100.00;101575.53;5248938;28;20563;-73
2023/09/29 10:56:09;;;;;;;10.68;2.97;;;;;;;22.26;100.00;101583.81;5244573;28;20102;-73
2023/09/29 10:58:39;;;;;;;7.45;2.70;;;;;;;22.34;100.00;101588.13;5242171;28;20032;-73
2023/09/29 11:01:11;;;;;;;8.35;2.72;;;;;;;22.43;100.00;101584.88;5245069;28;20652;-73
2023/09/29 11:03:43;;;;;;;6.88;2.42;;;;;;;22.41;100.00;101594.38;5243702;28;20032;-73
2023/09/29 11:06:20;;;;;;;6.13;2.90;;;;;;;22.22;100.00;101594.34;5245839;28;20168;-74
2023/09/29 11:08:53;;;;;;;6.53;2.40;;;;;;;21.94;100.00;101594.81;5243172;28;20491;-73
2023/09/29 11:11:26;;;;;;;7.35;2.80;;;;;;;21.87;100.00;101598.63;5244932;28;20036;-73
2023/09/29 11:13:57;;;;;;;7.38;2.45;;;;;;;21.60;100.00;101611.66;5241715;28;20032;-73
2023/09/29 11:16:28;;;;;;;6.55;2.60;;;;;;;21.53;100.00;101610.84;5243035;28;20216;-73
2023/09/29 11:19:11;;;;;;;7.30;2.65;;;;;;;21.37;100.00;101615.78;5242069;28;20028;-74
2023/09/29 11:21:42;;;;;;;7.30;2.72;;;;;;;21.37;100.00;101623.97;5243731;28;20027;-73
2023/09/29 11:24:13;;;;;;;10.20;2.97;;;;;;;21.43;100.00;101616.78;5241899;28;20473;-73
2023/09/29 11:26:47;;;;;;;7.10;3.10;;;;;;;21.38;100.00;101620.19;5240372;28;20048;-72
2023/09/29 11:29:21;;;;;;;7.80;3.60;;;;;;;21.45;100.00;101620.16;5240765;28;20101;-73
2023/09/29 11:31:53;;;;;;;11.88;3.20;;;;;;;21.44;100.00;101626.69;5242952;28;20081;-73
2023/09/29 11:34:24;;;;;;;6.43;2.47;;;;;;;21.40;100.00;101626.28;5243040;28;20435;-73